createdAt,value
2018-12-15T00:01:57.443Z,92.00
2018-12-15T00:04:25.195Z,92.00
2018-12-15T00:06:52.855Z,92.00
2018-12-15T00:09:20.556Z,92.00
2018-12-15T00:11:48.242Z,92.10
2018-12-15T00:14:15.916Z,91.90
2018-12-15T00:16:43.640Z,92.00
2018-12-15T00:19:11.394Z,92.10
2018-12-15T00:21:39.090Z,92.50
2018-12-15T00:24:06.750Z,92.20
2018-12-15T00:26:34.472Z,92.20
2018-12-15T00:29:02.126Z,92.20
2018-12-15T00:31:29.761Z,92.20
2018-12-15T00:33:57.496Z,92.20
2018-12-15T00:36:25.194Z,92.20
2018-12-15T00:38:52.869Z,92.20
2018-12-15T00:41:20.569Z,92.20
2018-12-15T00:43:48.412Z,92.20
2018-12-15T00:46:16.094Z,92.20
2018-12-15T00:48:43.762Z,92.20
2018-12-15T00:51:11.512Z,92.20
2018-12-15T00:53:39.248Z,92.20
2018-12-15T00:56:06.953Z,92.20
2018-12-15T00:58:34.619Z,92.20
2018-12-15T01:01:02.319Z,92.20
2018-12-15T01:03:30.117Z,92.10
2018-12-15T01:05:58.582Z,92.20
2018-12-15T01:08:26.274Z,92.20
2018-12-15T01:10:54.018Z,92.30
2018-12-15T01:13:21.705Z,92.20
2018-12-15T01:15:49.381Z,92.20
2018-12-15T01:18:17.076Z,92.20
2018-12-15T01:20:44.779Z,92.20
2018-12-15T01:23:12.473Z,92.10
2018-12-15T01:25:40.183Z,92.10
2018-12-15T01:28:07.879Z,92.20
2018-12-15T01:30:35.546Z,92.10
2018-12-15T01:33:03.260Z,92.10
2018-12-15T01:35:31.032Z,92.10
2018-12-15T01:37:58.725Z,92.30
2018-12-15T01:40:26.727Z,92.40
2018-12-15T01:42:54.383Z,92.50
2018-12-15T01:45:22.053Z,92.40
2018-12-15T01:47:49.731Z,92.40
2018-12-15T01:50:17.391Z,92.50
2018-12-15T01:52:45.097Z,92.20
2018-12-15T01:55:12.930Z,92.40
2018-12-15T01:57:40.621Z,92.30
2018-12-15T02:00:08.558Z,92.60
2018-12-15T02:02:36.280Z,92.20
2018-12-15T02:05:04.383Z,92.10
2018-12-15T02:07:32.059Z,92.40
2018-12-15T02:09:59.736Z,92.50
2018-12-15T02:12:27.400Z,92.50
2018-12-15T02:14:55.056Z,92.10
2018-12-15T02:17:22.759Z,92.10
2018-12-15T02:19:50.610Z,92.10
2018-12-15T02:22:18.304Z,92.00
2018-12-15T02:24:46.043Z,92.10
2018-12-15T02:27:13.688Z,92.10
2018-12-15T02:29:41.340Z,92.10
2018-12-15T02:32:09.038Z,92.10
2018-12-15T02:34:36.699Z,92.30
2018-12-15T02:37:04.380Z,92.20
2018-12-15T02:39:32.087Z,92.20
2018-12-15T02:41:59.740Z,92.10
2018-12-15T02:44:27.447Z,92.10
2018-12-15T02:46:55.154Z,92.50
2018-12-15T02:49:22.824Z,92.50
2018-12-15T02:51:50.470Z,92.50
2018-12-15T02:54:18.172Z,92.50
2018-12-15T02:56:45.826Z,92.50
2018-12-15T02:59:13.524Z,92.40
2018-12-15T03:01:41.231Z,92.10
2018-12-15T03:04:08.872Z,92.40
2018-12-15T03:06:37.286Z,92.40
2018-12-15T03:09:06.353Z,92.20
2018-12-15T03:11:34.059Z,92.10
2018-12-15T03:14:02.068Z,92.40
2018-12-15T03:16:29.775Z,92.40
2018-12-15T03:19:04.135Z,92.50
2018-12-15T03:21:31.829Z,92.40
2018-12-15T03:23:59.502Z,92.80
2018-12-15T03:26:27.750Z,92.30
2018-12-15T03:28:55.449Z,92.50
2018-12-15T03:31:23.142Z,92.50
2018-12-15T03:33:50.881Z,92.40
2018-12-15T03:36:18.808Z,92.10
2018-12-15T03:38:46.491Z,92.30
2018-12-15T03:41:14.329Z,92.10
2018-12-15T03:43:42.154Z,92.10
2018-12-15T03:46:10.566Z,92.20
2018-12-15T03:48:38.415Z,92.40
2018-12-15T03:51:06.105Z,92.50
2018-12-15T03:53:33.849Z,92.50
2018-12-15T03:56:01.566Z,92.10
2018-12-15T03:58:29.309Z,92.10
2018-12-15T04:01:01.085Z,92.10
2018-12-15T04:03:29.642Z,92.10
2018-12-15T04:05:57.380Z,92.10
2018-12-15T04:08:25.073Z,92.10
2018-12-15T04:10:52.944Z,92.10
2018-12-15T04:13:20.603Z,92.10
2018-12-15T04:15:48.286Z,92.10
2018-12-15T04:18:15.984Z,92.10
2018-12-15T04:20:43.671Z,92.10
2018-12-15T04:23:11.320Z,92.10
2018-12-15T04:25:39.001Z,92.10
2018-12-15T04:28:06.675Z,92.00
2018-12-15T04:30:34.697Z,92.10
2018-12-15T04:33:02.398Z,92.10
2018-12-15T04:35:30.089Z,92.10
2018-12-15T04:37:58.029Z,92.10
2018-12-15T04:40:25.854Z,92.00
2018-12-15T04:42:53.638Z,92.10
2018-12-15T04:45:21.297Z,92.10
2018-12-15T04:47:49.020Z,92.10
2018-12-15T04:50:16.677Z,92.00
2018-12-15T04:52:44.347Z,92.10
2018-12-15T04:55:12.027Z,91.90
2018-12-15T04:57:39.698Z,91.90
2018-12-15T05:00:07.645Z,92.00
2018-12-15T05:02:35.336Z,91.90
2018-12-15T05:05:03.235Z,92.10
2018-12-15T05:07:30.911Z,92.10
2018-12-15T05:09:58.664Z,92.00
2018-12-15T05:12:26.601Z,91.90
2018-12-15T05:14:54.302Z,91.70
2018-12-15T05:17:22.008Z,91.80
2018-12-15T05:19:49.689Z,91.80
2018-12-15T05:22:17.436Z,91.80
2018-12-15T05:24:45.387Z,91.80
2018-12-15T05:27:14.326Z,91.70
2018-12-15T05:29:41.996Z,91.70
2018-12-15T05:32:09.714Z,91.70
2018-12-15T05:34:43.164Z,92.10
2018-12-15T05:37:10.943Z,91.80
2018-12-15T05:39:38.635Z,91.80
2018-12-15T05:42:06.435Z,91.70
2018-12-15T05:44:34.132Z,91.70
2018-12-15T05:47:01.841Z,91.60
2018-12-15T05:49:29.660Z,91.70
2018-12-15T05:51:57.426Z,91.80
2018-12-15T05:54:25.115Z,91.70
2018-12-15T05:56:52.854Z,91.60
2018-12-15T05:59:20.668Z,91.40
2018-12-15T06:01:48.331Z,91.40
2018-12-15T06:04:15.998Z,91.60
2018-12-15T06:06:43.701Z,91.60
2018-12-15T06:09:11.374Z,91.50
2018-12-15T06:11:39.074Z,91.40
2018-12-15T06:14:06.822Z,91.40
2018-12-15T06:16:34.716Z,91.50
2018-12-15T06:19:02.422Z,91.30
2018-12-15T06:21:30.266Z,91.50
2018-12-15T06:23:57.940Z,91.60
2018-12-15T06:26:25.616Z,91.50
2018-12-15T06:28:53.324Z,91.60
2018-12-15T06:31:21.004Z,91.60
2018-12-15T06:33:48.679Z,91.70
2018-12-15T06:36:16.350Z,91.70
2018-12-15T06:38:44.017Z,92.00
2018-12-15T06:41:11.659Z,92.00
2018-12-15T06:43:39.458Z,92.10
2018-12-15T06:46:07.582Z,91.80
2018-12-15T06:48:38.114Z,92.00
2018-12-15T06:51:05.070Z,92.30
2018-12-15T06:53:32.759Z,92.10
2018-12-15T06:56:00.428Z,92.00
2018-12-15T06:58:28.930Z,92.00
2018-12-15T07:00:56.704Z,92.10
2018-12-15T07:03:24.348Z,92.10
2018-12-15T07:05:52.014Z,92.10
2018-12-15T07:08:19.817Z,92.10
2018-12-15T07:10:47.492Z,92.10
2018-12-15T07:13:15.196Z,92.10
2018-12-15T07:15:42.920Z,92.10
2018-12-15T07:18:10.611Z,92.10
2018-12-15T07:20:38.453Z,92.00
2018-12-15T07:23:06.217Z,92.10
2018-12-15T07:25:34.119Z,92.10
2018-12-15T07:28:01.839Z,92.10
2018-12-15T07:30:29.766Z,92.10
2018-12-15T07:32:57.440Z,92.10
2018-12-15T07:35:25.131Z,92.10
2018-12-15T07:37:52.869Z,92.10
2018-12-15T07:40:20.809Z,92.10
2018-12-15T07:42:48.499Z,92.10
2018-12-15T07:45:16.265Z,92.10
2018-12-15T07:47:43.945Z,92.20
2018-12-15T07:50:12.015Z,92.10
2018-12-15T07:52:40.226Z,92.10
2018-12-15T07:55:07.923Z,92.10
2018-12-15T07:57:35.662Z,92.00
2018-12-15T08:00:04.743Z,92.00
2018-12-15T08:02:32.435Z,91.80
2018-12-15T08:05:00.103Z,91.60
2018-12-15T08:07:28.055Z,91.60
2018-12-15T08:09:57.757Z,91.70
2018-12-15T08:12:31.165Z,91.60
2018-12-15T08:14:58.818Z,91.40
2018-12-15T08:17:27.038Z,91.40
2018-12-15T08:19:54.809Z,91.10
2018-12-15T08:22:26.204Z,91.20
2018-12-15T08:24:52.269Z,91.10
2018-12-15T08:27:19.994Z,90.50
2018-12-15T08:29:47.705Z,90.30
2018-12-15T08:32:15.417Z,90.00
2018-12-15T08:34:43.171Z,89.00
2018-12-15T08:37:10.842Z,88.90
2018-12-15T08:39:38.541Z,89.30
2018-12-15T08:42:06.239Z,89.50
2018-12-15T08:44:33.915Z,88.30
2018-12-15T08:47:01.571Z,89.00
2018-12-15T08:49:29.249Z,86.60
2018-12-15T08:51:56.963Z,88.40
2018-12-15T08:54:24.659Z,87.50
2018-12-15T08:56:52.445Z,86.60
2018-12-15T08:59:28.179Z,87.20
2018-12-15T09:01:57.528Z,87.10
2018-12-15T09:04:25.320Z,87.60
2018-12-15T09:06:53.033Z,87.60
2018-12-15T09:09:20.745Z,86.50
2018-12-15T09:11:48.801Z,86.00
2018-12-15T09:14:16.578Z,85.60
2018-12-15T09:16:44.264Z,84.00
2018-12-15T09:19:11.951Z,83.60
2018-12-15T09:21:39.742Z,83.30
2018-12-15T09:24:07.553Z,83.60
2018-12-15T09:26:35.288Z,83.70
2018-12-15T09:29:03.159Z,83.10
2018-12-15T09:31:30.919Z,83.60
2018-12-15T09:33:58.653Z,81.20
2018-12-15T09:36:26.348Z,81.60
2018-12-15T09:38:54.018Z,81.60
2018-12-15T09:41:21.653Z,80.50
2018-12-15T09:43:49.278Z,80.30
2018-12-15T09:46:17.152Z,79.80
2018-12-15T09:48:44.838Z,79.30
2018-12-15T09:51:12.600Z,78.90
2018-12-15T09:53:40.502Z,80.10
2018-12-15T09:56:08.193Z,80.10
2018-12-15T09:58:35.884Z,80.60
2018-12-15T10:01:03.718Z,81.10
2018-12-15T10:03:31.418Z,80.00
2018-12-15T10:05:59.086Z,80.60
2018-12-15T10:08:27.082Z,81.40
2018-12-15T10:11:01.541Z,80.20
2018-12-15T10:13:29.363Z,79.40
2018-12-15T10:15:57.125Z,79.00
2018-12-15T10:18:24.864Z,78.90
2018-12-15T10:20:52.603Z,79.70
2018-12-15T10:23:20.302Z,77.70
2018-12-15T10:25:48.044Z,78.60
2018-12-15T10:28:16.295Z,78.70
2018-12-15T10:30:49.846Z,78.50
2018-12-15T10:33:17.646Z,76.80
2018-12-15T10:35:45.335Z,76.60
2018-12-15T10:38:13.002Z,76.10
2018-12-15T10:40:41.461Z,76.50
2018-12-15T10:43:09.138Z,74.70
2018-12-15T10:45:36.811Z,75.00
2018-12-15T10:48:04.533Z,73.20
2018-12-15T10:50:32.201Z,74.00
2018-12-15T10:53:00.013Z,73.30
2018-12-15T10:55:27.705Z,73.70
2018-12-15T10:57:55.356Z,73.20
2018-12-15T11:00:25.948Z,74.30
2018-12-15T11:02:54.102Z,73.60
2018-12-15T11:05:23.657Z,73.80
2018-12-15T11:07:51.730Z,72.40
2018-12-15T11:10:19.559Z,70.30
2018-12-15T11:12:48.151Z,70.90
2018-12-15T11:15:17.599Z,72.80
2018-12-15T11:17:45.334Z,71.80
2018-12-15T11:20:15.702Z,71.10
2018-12-15T11:22:43.453Z,71.40
2018-12-15T11:25:13.265Z,70.60
2018-12-15T11:27:41.048Z,69.60
2018-12-15T11:30:08.794Z,71.10
2018-12-15T11:32:37.191Z,70.60
2018-12-15T11:35:05.339Z,69.80
2018-12-15T11:37:33.026Z,70.70
2018-12-15T11:40:00.786Z,70.80
2018-12-15T11:42:28.616Z,70.90
2018-12-15T11:44:56.345Z,70.20
2018-12-15T11:47:24.844Z,70.10
2018-12-15T11:49:52.575Z,70.90
2018-12-15T11:52:20.312Z,70.90
2018-12-15T11:54:48.770Z,70.90
2018-12-15T11:57:16.471Z,70.90
2018-12-15T11:59:44.216Z,72.00
2018-12-15T12:02:11.983Z,72.20
2018-12-15T12:04:42.855Z,71.50
2018-12-15T12:07:10.547Z,72.40
2018-12-15T12:09:41.318Z,72.90
2018-12-15T12:12:09.046Z,72.50
2018-12-15T12:14:36.701Z,71.80
2018-12-15T12:17:04.396Z,72.50
2018-12-15T12:19:32.146Z,72.40
2018-12-15T12:21:59.794Z,72.40
2018-12-15T12:24:27.537Z,72.50
2018-12-15T12:26:55.270Z,72.30
2018-12-15T12:29:23.032Z,73.30
2018-12-15T12:31:50.748Z,72.50
2018-12-15T12:34:18.438Z,73.50
2018-12-15T12:36:46.144Z,73.70
2018-12-15T12:39:13.862Z,74.30
2018-12-15T12:41:41.558Z,73.70
2018-12-15T12:44:09.263Z,74.50
2018-12-15T12:46:43.660Z,74.30
2018-12-15T12:49:11.374Z,73.40
2018-12-15T12:51:39.794Z,72.80
2018-12-15T12:54:07.522Z,72.70
2018-12-15T12:56:35.484Z,72.50
2018-12-15T12:59:03.278Z,73.40
2018-12-15T13:01:31.006Z,73.10
2018-12-15T13:03:58.696Z,73.40
2018-12-15T13:06:26.406Z,73.90
2018-12-15T13:08:54.120Z,74.30
2018-12-15T13:11:21.809Z,74.80
2018-12-15T13:13:49.554Z,74.80
2018-12-15T13:16:19.046Z,74.70
2018-12-15T13:18:47.060Z,74.60
2018-12-15T13:21:14.776Z,75.20
2018-12-15T13:23:42.502Z,75.30
2018-12-15T13:26:10.198Z,75.40
2018-12-15T13:28:37.910Z,75.60
2018-12-15T13:31:05.784Z,75.40
2018-12-15T13:33:35.942Z,75.20
2018-12-15T13:36:10.919Z,75.40
2018-12-15T13:38:38.646Z,76.00
2018-12-15T13:41:06.601Z,76.10
2018-12-15T13:43:34.456Z,76.50
2018-12-15T13:46:02.220Z,76.50
2018-12-15T13:48:29.943Z,76.60
2018-12-15T13:50:57.670Z,76.60
2018-12-15T13:53:25.394Z,76.50
2018-12-15T13:55:53.169Z,76.60
2018-12-15T13:58:20.902Z,76.60
2018-12-15T14:00:48.670Z,76.70
2018-12-15T14:03:16.490Z,76.60
2018-12-15T14:08:28.412Z,77.70
2018-12-15T14:10:56.187Z,78.20
2018-12-15T14:13:23.876Z,78.50
2018-12-15T14:15:51.558Z,79.10
2018-12-15T14:18:19.273Z,78.50
2018-12-15T14:20:46.987Z,78.80
2018-12-15T14:23:21.310Z,79.00
2018-12-15T14:25:49.254Z,79.00
2018-12-15T14:28:16.969Z,79.30
2018-12-15T14:30:44.705Z,79.00
2018-12-15T14:33:12.390Z,79.00
2018-12-15T14:35:40.082Z,79.40
2018-12-15T14:38:07.800Z,79.40
2018-12-15T14:40:35.473Z,80.00
2018-12-15T14:43:03.229Z,80.50
2018-12-15T14:45:30.934Z,80.80
2018-12-15T14:47:58.640Z,80.90
2018-12-15T14:50:26.294Z,81.10
2018-12-15T14:52:54.056Z,81.30
2018-12-15T14:55:21.859Z,81.40
2018-12-15T14:57:49.564Z,81.40
2018-12-15T15:00:17.375Z,81.20
2018-12-15T15:02:45.046Z,81.60
2018-12-15T15:05:12.808Z,81.20
2018-12-15T15:07:40.602Z,81.60
2018-12-15T15:10:08.504Z,81.80
2018-12-15T15:12:36.198Z,81.60
2018-12-15T15:15:04.672Z,81.70
2018-12-15T15:17:32.512Z,81.30
2018-12-15T15:20:00.200Z,81.40
2018-12-15T15:22:28.028Z,81.40
2018-12-15T15:24:55.717Z,81.60
2018-12-15T15:27:23.413Z,81.70
2018-12-15T15:29:54.864Z,81.50
2018-12-15T15:32:22.572Z,81.40
2018-12-15T15:34:50.249Z,81.40
2018-12-15T15:37:17.967Z,81.30
2018-12-15T15:39:45.670Z,80.30
2018-12-15T15:42:13.382Z,80.40
2018-12-15T15:44:41.092Z,79.90
2018-12-15T15:47:11.309Z,80.20
2018-12-15T15:49:39.404Z,80.50
2018-12-15T15:52:07.137Z,80.20
2018-12-15T15:54:34.885Z,80.80
2018-12-15T15:57:02.631Z,80.90
2018-12-15T15:59:30.349Z,80.40
2018-12-15T16:01:59.947Z,80.90
2018-12-15T16:04:27.645Z,80.70
2018-12-15T16:06:55.431Z,81.00
2018-12-15T16:09:23.214Z,80.90
2018-12-15T16:11:50.898Z,80.90
2018-12-15T16:14:18.689Z,80.80
2018-12-15T16:16:46.417Z,81.10
2018-12-15T16:19:14.052Z,81.00
2018-12-15T16:21:41.719Z,81.20
2018-12-15T16:24:09.357Z,81.10
2018-12-15T16:26:37.037Z,81.30
2018-12-15T16:29:04.837Z,81.40
2018-12-15T16:31:32.537Z,81.40
2018-12-15T16:34:00.224Z,81.60
2018-12-15T16:36:27.905Z,81.40
2018-12-15T16:38:55.589Z,81.70
2018-12-15T16:41:23.314Z,81.30
2018-12-15T16:43:50.998Z,81.20
2018-12-15T16:46:18.631Z,81.30
2018-12-15T16:48:46.341Z,81.50
2018-12-15T16:51:14.039Z,81.50
2018-12-15T16:53:41.691Z,81.50
2018-12-15T16:56:09.378Z,81.80
2018-12-15T16:58:37.105Z,82.20
2018-12-15T17:01:04.892Z,82.20
2018-12-15T17:03:32.603Z,82.40
2018-12-15T17:06:00.394Z,82.40
2018-12-15T17:08:28.066Z,82.50
2018-12-15T17:10:55.770Z,82.50
2018-12-15T17:13:23.509Z,82.40
2018-12-15T17:15:51.198Z,82.50
2018-12-15T17:18:18.919Z,82.60
2018-12-15T17:20:46.640Z,82.50
2018-12-15T17:23:14.300Z,82.60
2018-12-15T17:25:41.984Z,82.70
2018-12-15T17:28:09.693Z,82.90
2018-12-15T17:30:37.389Z,82.50
2018-12-15T17:33:05.088Z,82.50
2018-12-15T17:35:32.833Z,82.20
2018-12-15T17:38:00.556Z,82.60
2018-12-15T17:40:28.265Z,82.60
2018-12-15T17:42:56.071Z,82.30
2018-12-15T17:45:23.803Z,82.10
2018-12-15T17:47:51.497Z,82.60
2018-12-15T17:50:19.371Z,82.50
2018-12-15T17:52:47.095Z,83.50
2018-12-15T17:55:14.821Z,82.80
2018-12-15T17:57:42.617Z,82.30
2018-12-15T18:00:11.665Z,82.30
2018-12-15T18:02:39.509Z,82.40
2018-12-15T18:05:07.365Z,82.70
2018-12-15T18:07:35.037Z,82.40
2018-12-15T18:10:03.253Z,82.40
2018-12-15T18:12:30.956Z,82.80
2018-12-15T18:14:58.656Z,82.80
2018-12-15T18:17:26.358Z,82.80
2018-12-15T18:19:54.055Z,82.80
2018-12-15T18:22:21.733Z,82.70
2018-12-15T18:24:49.463Z,83.30
2018-12-15T18:27:17.179Z,83.30
2018-12-15T18:29:44.862Z,83.90
2018-12-15T18:32:12.609Z,83.00
2018-12-15T18:34:40.357Z,83.10
2018-12-15T18:37:08.053Z,83.10
2018-12-15T18:39:35.770Z,83.10
2018-12-15T18:42:03.495Z,83.40
2018-12-15T18:44:31.147Z,83.70
2018-12-15T18:46:58.854Z,83.60
2018-12-15T18:49:26.607Z,83.80
2018-12-15T18:51:54.325Z,84.10
2018-12-15T18:54:22.130Z,84.20
2018-12-15T18:56:50.184Z,84.20
2018-12-15T18:59:18.331Z,84.20
2018-12-15T19:01:46.042Z,84.10
2018-12-15T19:04:13.753Z,84.30
2018-12-15T19:06:41.445Z,84.70
2018-12-15T19:09:09.137Z,84.50
2018-12-15T19:11:36.873Z,84.20
2018-12-15T19:14:04.552Z,84.50
2018-12-15T19:16:32.242Z,84.50
2018-12-15T19:19:00.065Z,84.70
2018-12-15T19:21:27.793Z,84.50
2018-12-15T19:23:55.463Z,84.80
2018-12-15T19:26:23.149Z,85.60
2018-12-15T19:28:50.833Z,85.80
2018-12-15T19:31:18.527Z,85.10
2018-12-15T19:33:46.241Z,85.20
2018-12-15T19:36:13.965Z,85.20
2018-12-15T19:38:41.618Z,85.70
2018-12-15T19:41:09.323Z,86.20
2018-12-15T19:43:36.997Z,86.30
2018-12-15T19:46:04.656Z,86.20
2018-12-15T19:48:32.433Z,86.10
2018-12-15T19:51:00.121Z,86.10
2018-12-15T19:53:27.760Z,85.90
2018-12-15T19:55:55.451Z,86.60
2018-12-15T19:58:23.147Z,86.20
2018-12-15T20:00:58.017Z,86.40
2018-12-15T20:03:25.701Z,86.00
2018-12-15T20:05:53.393Z,85.90
2018-12-15T20:08:21.078Z,86.10
2018-12-15T20:10:48.743Z,86.10
2018-12-15T20:13:16.461Z,86.10
2018-12-15T20:15:44.160Z,86.20
2018-12-15T20:18:11.839Z,85.20
2018-12-15T20:20:39.525Z,85.00
2018-12-15T20:23:07.344Z,84.40
2018-12-15T20:25:35.136Z,84.30
2018-12-15T20:28:02.817Z,82.50
2018-12-15T20:30:30.563Z,82.30
2018-12-15T20:32:58.955Z,82.70
2018-12-15T20:35:26.779Z,81.60
2018-12-15T20:37:54.537Z,81.60
2018-12-15T20:40:22.405Z,81.00
2018-12-15T20:42:50.120Z,80.90
2018-12-15T20:45:17.868Z,80.70
2018-12-15T20:47:45.579Z,80.00
2018-12-15T20:50:13.253Z,80.20
2018-12-15T20:52:47.354Z,80.10
2018-12-15T20:55:10.865Z,79.30
2018-12-15T20:57:38.566Z,79.90
2018-12-15T21:00:08.042Z,79.40
2018-12-15T21:02:35.862Z,79.50
2018-12-15T21:05:03.889Z,79.50
2018-12-15T21:07:31.683Z,79.40
2018-12-15T21:09:59.378Z,79.50
2018-12-15T21:12:27.077Z,78.70
2018-12-15T21:14:56.860Z,78.30
2018-12-15T21:17:24.576Z,79.60
2018-12-15T21:19:52.304Z,78.80
2018-12-15T21:22:20.496Z,78.90
2018-12-15T21:24:48.326Z,78.50
2018-12-15T21:27:16.069Z,77.60
2018-12-15T21:29:43.830Z,77.40
2018-12-15T21:32:11.509Z,77.60
2018-12-15T21:34:39.204Z,77.20
2018-12-15T21:37:10.011Z,77.30
2018-12-15T21:39:37.762Z,76.30
2018-12-15T21:42:05.473Z,74.90
2018-12-15T21:44:33.190Z,74.90
2018-12-15T21:47:00.859Z,75.40
2018-12-15T21:49:28.552Z,74.60
2018-12-15T21:51:56.587Z,74.60
2018-12-15T21:54:24.342Z,74.20
2018-12-15T21:56:52.040Z,73.80
2018-12-15T21:59:19.729Z,74.10
2018-12-15T22:01:47.429Z,73.90
2018-12-15T22:04:15.141Z,74.50
2018-12-15T22:09:17.472Z,74.60
2018-12-15T22:11:52.753Z,74.20
2018-12-15T22:14:20.501Z,74.30
2018-12-15T22:16:48.150Z,74.10
2018-12-15T22:19:15.926Z,74.20
2018-12-15T22:21:43.591Z,74.20
2018-12-15T22:24:11.344Z,74.10
2018-12-15T22:26:39.078Z,74.10
2018-12-15T22:29:06.737Z,73.90
2018-12-15T22:31:34.527Z,74.60
2018-12-15T22:34:02.313Z,74.50
2018-12-15T22:36:30.027Z,74.20
2018-12-15T22:38:57.749Z,74.10
2018-12-15T22:41:25.481Z,74.50
2018-12-15T22:43:53.219Z,74.70
2018-12-15T22:46:20.949Z,75.00
2018-12-15T22:48:48.693Z,75.10
2018-12-15T22:51:16.430Z,76.20
2018-12-15T22:53:44.117Z,75.40
2018-12-15T22:56:11.853Z,75.40
2018-12-15T22:58:39.568Z,76.30
2018-12-15T23:01:11.925Z,76.90
2018-12-15T23:03:39.838Z,78.30
2018-12-15T23:06:07.825Z,78.40
2018-12-15T23:08:35.598Z,78.10
2018-12-15T23:11:03.521Z,78.70
2018-12-15T23:13:31.220Z,79.30
2018-12-15T23:15:58.937Z,80.70
2018-12-15T23:18:26.683Z,80.70
2018-12-15T23:20:54.384Z,80.90
2018-12-15T23:23:22.102Z,80.80
2018-12-15T23:25:49.846Z,81.20
2018-12-15T23:28:17.548Z,82.10
2018-12-15T23:30:45.258Z,83.00
2018-12-15T23:33:12.971Z,83.90
2018-12-15T23:35:40.695Z,83.90
2018-12-15T23:38:08.400Z,83.90
2018-12-15T23:40:36.278Z,84.50
2018-12-15T23:43:04.123Z,84.70
2018-12-15T23:45:31.876Z,85.90
2018-12-15T23:47:59.570Z,86.30
2018-12-15T23:50:27.296Z,86.90
2018-12-15T23:52:55.019Z,87.30
2018-12-15T23:55:22.713Z,88.20
2018-12-15T23:57:50.414Z,88.80
